Time;durP1;ratioP1;P1;durP2;ratioP2;P2;SDS_P1;SDS_P2;PMS_P1;PMS_P2;Temp;Humidity;BMP_temperature;BMP_pressure;BME280_temperature;BME280_humidity;BME280_pressure;Samples;Min_cycle;Max_cycle;Signal;HPM_P1;HPM_P2
2023/05/24 03:57:03;;;;;;;6.43;5.82;;;11.60;99.90;;;;;;5266790;23;21073;-70
2023/05/24 03:59:30;;;;;;;6.93;6.32;;;11.70;99.90;;;;;;4916499;29;20598;-69
2023/05/24 04:01:57;;;;;;;7.00;6.35;;;11.60;99.90;;;;;;4916879;29;20251;-69
2023/05/24 04:04:23;;;;;;;4.85;4.45;;;11.70;99.90;;;;;;4916506;29;20736;-69
2023/05/24 04:06:50;;;;;;;6.35;5.40;;;11.60;99.90;;;;;;4916803;29;20229;-70
2023/05/24 04:09:17;;;;;;;5.80;5.32;;;11.60;99.90;;;;;;4917202;29;20206;-71
2023/05/24 04:11:43;;;;;;;6.20;5.13;;;11.70;99.90;;;;;;4916787;29;20205;-70
2023/05/24 04:14:11;;;;;;;5.45;4.93;;;11.70;99.90;;;;;;4916422;29;20672;-68
2023/05/24 04:16:40;;;;;;;6.25;5.75;;;11.70;99.90;;;;;;4918144;29;20229;-69
2023/05/24 04:19:07;;;;;;;7.10;6.40;;;11.70;99.90;;;;;;4920053;29;20260;-69
2023/05/24 04:21:35;;;;;;;7.75;6.40;;;11.70;99.90;;;;;;4920433;29;20213;-68
2023/05/24 04:24:02;;;;;;;6.25;5.05;;;11.80;99.90;;;;;;4919811;29;20661;-69
2023/05/24 04:26:29;;;;;;;5.68;5.18;;;11.80;99.90;;;;;;4920109;29;20249;-69
2023/05/24 04:28:56;;;;;;;6.88;6.28;;;11.80;99.90;;;;;;4920135;29;20197;-69
2023/05/24 04:31:25;;;;;;;6.50;5.72;;;11.80;99.90;;;;;;4919698;29;20201;-69
2023/05/24 04:33:51;;;;;;;5.93;5.43;;;11.80;99.90;;;;;;4920108;29;20248;-71
2023/05/24 04:36:18;;;;;;;6.60;5.75;;;11.90;99.90;;;;;;4919903;29;20280;-71
2023/05/24 04:38:46;;;;;;;5.97;5.43;;;11.90;99.90;;;;;;4919860;29;20217;-71
2023/05/24 04:41:13;;;;;;;5.82;5.20;;;11.80;99.90;;;;;;4920168;29;20205;-71
2023/05/24 04:43:40;;;;;;;5.93;5.35;;;11.80;99.90;;;;;;4919979;29;20241;-71
2023/05/24 04:46:07;;;;;;;6.30;5.70;;;11.80;99.90;;;;;;4919886;29;20267;-71
2023/05/24 04:48:35;;;;;;;6.97;6.35;;;11.70;99.90;;;;;;4919740;29;20209;-71
2023/05/24 04:51:02;;;;;;;8.50;6.00;;;11.70;99.90;;;;;;4919837;29;20208;-70
2023/05/24 04:53:29;;;;;;;6.57;5.93;;;11.70;99.90;;;;;;4919608;29;20202;-70
2023/05/24 04:55:55;;;;;;;5.40;4.90;;;11.60;99.90;;;;;;4919707;29;20229;-70
2023/05/24 04:58:22;;;;;;;5.88;5.38;;;11.60;99.90;;;;;;4919530;29;20265;-71
2023/05/24 05:00:49;;;;;;;6.28;5.75;;;11.60;99.90;;;;;;4919599;29;20205;-71
2023/05/24 05:03:16;;;;;;;7.90;5.10;;;11.60;99.90;;;;;;4919637;29;20296;-71
2023/05/24 05:05:45;;;;;;;6.15;5.03;;;11.60;99.90;;;;;;4919430;29;20205;-71
2023/05/24 05:08:12;;;;;;;8.15;6.10;;;11.50;99.90;;;;;;4919427;29;20350;-71
2023/05/24 05:10:39;;;;;;;6.82;6.13;;;11.50;99.90;;;;;;4919488;29;20206;-71
2023/05/24 05:13:06;;;;;;;9.13;6.35;;;11.50;99.90;;;;;;4919466;29;20205;-71
2023/05/24 05:15:33;;;;;;;6.93;6.00;;;11.50;99.90;;;;;;4919389;29;20205;-71
2023/05/24 05:18:00;;;;;;;6.20;5.60;;;11.50;99.90;;;;;;4919349;29;20206;-71
2023/05/24 05:20:26;;;;;;;8.73;6.70;;;11.40;99.90;;;;;;4919242;29;20252;-71
2023/05/24 05:22:54;;;;;;;7.25;6.05;;;11.50;99.90;;;;;;4919147;29;20300;-71
2023/05/24 05:25:21;;;;;;;10.77;5.45;;;11.50;99.90;;;;;;4919277;29;20205;-71
2023/05/24 05:27:48;;;;;;;9.27;6.13;;;11.50;99.90;;;;;;4918517;29;20237;-71
2023/05/24 05:30:15;;;;;;;9.48;6.20;;;11.50;99.90;;;;;;4918839;29;20572;-71
2023/05/24 05:32:42;;;;;;;8.80;6.95;;;11.50;99.90;;;;;;4919082;29;20213;-71
2023/05/24 05:35:09;;;;;;;5.30;4.88;;;11.40;99.90;;;;;;4919030;29;20214;-71
2023/05/24 05:37:36;;;;;;;9.55;6.88;;;11.40;99.90;;;;;;4918970;29;20221;-71
2023/05/24 05:40:04;;;;;;;6.15;4.65;;;11.40;99.90;;;;;;4918914;29;20273;-71
2023/05/24 05:42:31;;;;;;;7.53;5.78;;;11.40;99.90;;;;;;4918845;29;20216;-71
2023/05/24 05:44:58;;;;;;;5.95;5.38;;;11.50;99.90;;;;;;4918836;29;20217;-71
2023/05/24 05:47:24;;;;;;;5.15;4.75;;;11.60;99.90;;;;;;4918766;29;20226;-71
2023/05/24 05:49:51;;;;;;;4.53;4.22;;;11.70;99.90;;;;;;4918570;29;20201;-71
2023/05/24 05:52:18;;;;;;;4.80;4.40;;;11.90;99.90;;;;;;4918759;29;20211;-71
2023/05/24 05:54:44;;;;;;;6.55;5.85;;;12.00;99.90;;;;;;4918706;29;20221;-71
2023/05/24 05:57:12;;;;;;;5.97;5.38;;;12.20;99.90;;;;;;4918640;29;20229;-71
2023/05/24 05:59:39;;;;;;;5.05;4.40;;;12.40;99.90;;;;;;4918504;29;20614;-71
2023/05/24 06:02:06;;;;;;;3.75;3.30;;;12.60;99.90;;;;;;4918600;29;20205;-71
2023/05/24 06:04:33;;;;;;;4.10;3.80;;;12.70;99.90;;;;;;4918501;29;20724;-71
2023/05/24 06:07:00;;;;;;;7.63;5.18;;;12.80;99.90;;;;;;4918155;29;20257;-71
2023/05/24 06:09:27;;;;;;;6.22;5.40;;;12.90;99.90;;;;;;4918444;29;20224;-71
2023/05/24 06:11:53;;;;;;;6.07;4.82;;;12.90;99.90;;;;;;4918143;29;20210;-71
2023/05/24 06:14:23;;;;;;;6.47;4.68;;;12.90;99.90;;;;;;4918367;29;20208;-71
2023/05/24 06:16:51;;;;;;;4.50;4.10;;;12.80;99.90;;;;;;4918118;29;20230;-71
2023/05/24 06:19:18;;;;;;;6.13;3.97;;;12.80;99.90;;;;;;4917858;29;20764;-71
2023/05/24 06:21:46;;;;;;;4.57;4.18;;;12.70;99.90;;;;;;4918253;29;20206;-71
2023/05/24 06:24:13;;;;;;;6.63;4.60;;;12.70;99.90;;;;;;4917829;29;20683;-71
2023/05/24 06:26:40;;;;;;;6.63;4.68;;;12.70;99.90;;;;;;4918058;29;20245;-71
2023/05/24 06:29:07;;;;;;;6.55;5.28;;;12.60;99.90;;;;;;4918056;29;20214;-71
2023/05/24 06:31:35;;;;;;;6.75;4.43;;;12.50;99.90;;;;;;4917854;29;20212;-71
2023/05/24 06:34:02;;;;;;;4.80;4.07;;;12.40;99.90;;;;;;4917644;29;20606;-71
2023/05/24 06:36:28;;;;;;;6.30;4.47;;;12.40;99.90;;;;;;4917842;29;20232;-71
2023/05/24 06:38:55;;;;;;;4.38;3.83;;;12.30;99.90;;;;;;4916740;29;20577;-71
2023/05/24 06:41:22;;;;;;;4.47;3.65;;;12.30;99.90;;;;;;4917870;29;20228;-71
2023/05/24 06:43:49;;;;;;;5.55;4.18;;;12.30;99.90;;;;;;4917835;29;20241;-71
2023/05/24 06:46:16;;;;;;;3.50;3.30;;;12.40;99.90;;;;;;4917750;29;20221;-71
2023/05/24 06:48:44;;;;;;;4.30;3.65;;;12.50;99.90;;;;;;4917459;29;20613;-71
2023/05/24 06:51:11;;;;;;;6.32;3.60;;;12.60;99.90;;;;;;4917414;29;20609;-71
2023/05/24 06:53:37;;;;;;;5.13;4.20;;;12.70;99.90;;;;;;4917392;29;20662;-71
2023/05/24 06:56:04;;;;;;;4.60;4.18;;;12.90;99.90;;;;;;4917776;29;20248;-71
2023/05/24 06:58:31;;;;;;;9.85;4.65;;;13.00;99.90;;;;;;4917628;29;20303;-71
2023/05/24 07:00:58;;;;;;;3.45;3.25;;;13.10;99.90;;;;;;4917246;29;20295;-71
2023/05/24 07:03:25;;;;;;;3.70;3.30;;;13.10;99.90;;;;;;4917194;29;20696;-71
2023/05/24 07:05:53;;;;;;;7.28;4.20;;;13.10;99.90;;;;;;4917696;29;20222;-71
2023/05/24 07:08:19;;;;;;;5.43;3.65;;;13.20;99.90;;;;;;4917355;29;20265;-71
2023/05/24 07:10:46;;;;;;;5.20;3.75;;;13.10;99.90;;;;;;4917214;29;20602;-71
2023/05/24 07:13:13;;;;;;;5.60;3.88;;;13.00;99.90;;;;;;4917471;29;20229;-71
2023/05/24 07:15:41;;;;;;;6.40;3.67;;;12.90;99.90;;;;;;4917020;29;20213;-71
2023/05/24 07:18:07;;;;;;;7.15;4.70;;;12.80;99.90;;;;;;4917057;29;20673;-71
2023/05/24 07:20:34;;;;;;;2.95;2.75;;;12.80;99.90;;;;;;4916995;29;20228;-71
2023/05/24 07:23:02;;;;;;;4.03;3.58;;;12.80;99.90;;;;;;4917315;29;20212;-71
2023/05/24 07:25:29;;;;;;;4.88;4.07;;;12.70;99.90;;;;;;4917440;29;20213;-71
2023/05/24 07:27:56;;;;;;;4.68;3.83;;;12.60;99.90;;;;;;4917289;29;20205;-71
2023/05/24 07:30:22;;;;;;;7.82;4.18;;;12.70;99.90;;;;;;4916907;29;20216;-71
2023/05/24 07:32:49;;;;;;;5.43;3.90;;;12.80;99.90;;;;;;4917201;29;20288;-71
2023/05/24 07:35:16;;;;;;;5.53;3.92;;;12.70;99.90;;;;;;4917324;29;20209;-71
2023/05/24 07:37:43;;;;;;;5.25;4.35;;;12.70;99.90;;;;;;4917274;29;20229;-71
2023/05/24 07:40:12;;;;;;;4.03;3.50;;;12.60;99.90;;;;;;4917167;29;20224;-71
2023/05/24 07:42:38;;;;;;;5.03;3.92;;;12.60;99.90;;;;;;4917194;29;20240;-71
2023/05/24 07:45:07;;;;;;;9.90;4.65;;;12.50;99.90;;;;;;4917081;29;20213;-71
2023/05/24 07:47:34;;;;;;;6.90;4.55;;;12.50;99.90;;;;;;4916784;29;20225;-71
2023/05/24 07:50:01;;;;;;;4.30;3.85;;;12.50;99.90;;;;;;4917342;29;20721;-71
2023/05/24 07:52:27;;;;;;;4.60;3.55;;;12.50;99.90;;;;;;4920618;29;20613;-71
2023/05/24 07:54:54;;;;;;;6.30;4.60;;;12.50;99.90;;;;;;4920906;29;20216;-71
2023/05/24 07:57:22;;;;;;;5.25;3.67;;;12.50;99.90;;;;;;4920790;29;20225;-71
2023/05/24 07:59:49;;;;;;;4.57;3.42;;;12.60;99.90;;;;;;4920489;29;20263;-71
2023/05/24 08:02:16;;;;;;;11.02;5.28;;;12.70;99.90;;;;;;4920851;29;20216;-71
2023/05/24 08:04:43;;;;;;;7.47;4.63;;;12.80;99.90;;;;;;4920707;29;20209;-71
2023/05/24 08:07:10;;;;;;;6.00;4.03;;;12.80;99.90;;;;;;4920279;29;20739;-71
2023/05/24 08:09:37;;;;;;;6.18;3.90;;;12.80;99.90;;;;;;4920523;29;20205;-71
2023/05/24 08:12:04;;;;;;;5.22;3.40;;;12.80;99.90;;;;;;4920546;29;20248;-71
2023/05/24 08:14:33;;;;;;;4.35;3.25;;;12.80;99.90;;;;;;4920402;29;20205;-71
2023/05/24 08:17:00;;;;;;;6.28;3.30;;;12.90;99.90;;;;;;4920359;29;20229;-71
2023/05/24 08:19:27;;;;;;;4.72;3.30;;;12.90;99.90;;;;;;4920118;29;20233;-71
2023/05/24 08:21:55;;;;;;;3.85;3.55;;;13.00;99.90;;;;;;4920269;29;20225;-71
2023/05/24 08:24:22;;;;;;;4.72;3.35;;;13.10;99.90;;;;;;4920339;29;20300;-71
2023/05/24 08:26:50;;;;;;;3.55;3.25;;;13.20;99.90;;;;;;4919939;29;20229;-71
2023/05/24 08:29:17;;;;;;;3.25;2.88;;;13.30;99.90;;;;;;4920263;29;20232;-71
2023/05/24 08:31:45;;;;;;;3.17;2.90;;;13.30;99.90;;;;;;4920224;29;20201;-71
2023/05/24 08:34:12;;;;;;;5.10;3.10;;;13.30;99.90;;;;;;4920162;29;20208;-71
2023/05/24 08:36:39;;;;;;;7.53;3.67;;;13.30;99.90;;;;;;4920056;29;20355;-71
2023/05/24 08:39:07;;;;;;;4.13;3.67;;;13.40;99.90;;;;;;4919897;29;20209;-71
2023/05/24 08:41:36;;;;;;;7.10;3.78;;;13.60;99.90;;;;;;4919994;29;20256;-71
2023/05/24 08:44:05;;;;;;;6.18;3.42;;;13.70;99.90;;;;;;4919969;29;20232;-71
2023/05/24 08:46:34;;;;;;;5.15;3.88;;;13.90;99.90;;;;;;4919847;29;20259;-71
2023/05/24 08:49:03;;;;;;;6.18;4.13;;;14.00;99.90;;;;;;4919965;29;20232;-71
2023/05/24 08:51:29;;;;;;;5.88;3.78;;;14.20;99.90;;;;;;4919921;29;20243;-71
2023/05/24 08:53:58;;;;;;;3.00;2.67;;;14.30;99.90;;;;;;4919984;29;20209;-71
2023/05/24 08:56:25;;;;;;;3.67;2.67;;;14.60;99.90;;;;;;4919586;29;20252;-71
2023/05/24 08:58:54;;;;;;;4.15;3.10;;;14.70;99.90;;;;;;4919493;29;20244;-71
2023/05/24 09:01:21;;;;;;;6.80;4.05;;;15.00;99.90;;;;;;4919147;29;20236;-71
2023/05/24 09:03:49;;;;;;;6.35;3.45;;;15.20;99.90;;;;;;4918962;29;20591;-71
2023/05/24 09:06:18;;;;;;;6.90;5.10;;;15.10;99.90;;;;;;4919515;29;20226;-71
2023/05/24 09:08:45;;;;;;;5.57;3.90;;;15.10;99.90;;;;;;4919543;29;20209;-71
2023/05/24 09:11:15;;;;;;;7.28;3.70;;;14.80;99.90;;;;;;4919147;29;20605;-71
2023/05/24 09:13:42;;;;;;;4.38;3.13;;;14.70;99.90;;;;;;4919093;29;20673;-71
2023/05/24 09:16:09;;;;;;;4.43;2.95;;;14.60;99.90;;;;;;4919352;29;20233;-71
2023/05/24 09:18:35;;;;;;;3.08;2.72;;;14.50;99.90;;;;;;4919572;29;20209;-71
2023/05/24 09:21:02;;;;;;;6.22;3.20;;;14.50;99.90;;;;;;4919348;29;20217;-71
2023/05/24 09:23:30;;;;;;;5.57;3.58;;;14.50;99.90;;;;;;4919527;29;20205;-71
2023/05/24 09:25:57;;;;;;;5.65;3.40;;;14.30;99.90;;;;;;4919227;29;20226;-71
2023/05/24 09:28:24;;;;;;;6.05;3.63;;;14.30;99.90;;;;;;4919292;29;20217;-71
2023/05/24 09:30:58;;;;;;;5.80;3.50;;;14.10;99.90;;;;;;4918899;29;20692;-71
2023/05/24 09:33:31;;;;;;;7.05;4.43;;;13.90;99.90;;;;;;4919149;29;20193;-71
2023/05/24 09:35:58;;;;;;;8.40;3.63;;;13.80;99.90;;;;;;4919032;29;20226;-71
2023/05/24 09:38:26;;;;;;;4.28;3.63;;;13.60;99.90;;;;;;4919058;29;20209;-71
2023/05/24 09:41:05;;;;;;;3.33;2.78;;;13.50;99.90;;;;;;4919216;29;20320;-71
2023/05/24 09:43:34;;;;;;;6.05;4.10;;;13.50;99.90;;;;;;4918977;29;20193;-71
2023/05/24 09:46:03;;;;;;;4.53;3.30;;;13.50;99.90;;;;;;4918830;29;20642;-71
2023/05/24 09:48:30;;;;;;;3.55;3.28;;;13.50;99.90;;;;;;4919031;29;20613;-71
2023/05/24 09:51:04;;;;;;;4.53;3.63;;;13.50;99.90;;;;;;4918888;29;20284;-71
2023/05/24 09:53:32;;;;;;;3.97;3.58;;;13.50;99.90;;;;;;4918775;29;20269;-71
2023/05/24 09:56:00;;;;;;;5.43;3.30;;;13.60;99.90;;;;;;4918756;29;20221;-71
2023/05/24 09:58:31;;;;;;;7.82;3.38;;;13.60;99.90;;;;;;4918643;29;20242;-71
2023/05/24 10:01:06;;;;;;;5.93;4.18;;;13.60;99.90;;;;;;4918645;29;20285;-71
2023/05/24 10:03:32;;;;;;;5.43;3.78;;;13.50;99.90;;;;;;4918658;29;20217;-71
2023/05/24 10:06:00;;;;;;;11.50;5.45;;;13.40;99.90;;;;;;4918654;29;20229;-71
2023/05/24 10:08:27;;;;;;;11.65;5.28;;;13.40;99.90;;;;;;4918821;29;20205;-72
2023/05/24 10:10:55;;;;;;;7.90;4.60;;;13.40;99.90;;;;;;4918997;29;20229;-71
2023/05/24 10:13:23;;;;;;;7.80;4.13;;;13.40;99.90;;;;;;4918043;29;20618;-71
2023/05/24 10:15:51;;;;;;;4.63;4.10;;;13.30;99.90;;;;;;4918409;29;20248;-70
2023/05/24 10:18:18;;;;;;;8.18;3.92;;;13.30;99.90;;;;;;4918456;29;20209;-70
2023/05/24 10:20:45;;;;;;;7.75;4.05;;;13.20;99.90;;;;;;4918299;29;20732;-70
2023/05/24 10:23:19;;;;;;;7.20;4.47;;;13.20;99.90;;;;;;4918027;29;20669;-70
2023/05/24 10:25:52;;;;;;;12.18;4.07;;;13.20;99.90;;;;;;4918049;29;20553;-70
2023/05/24 10:28:22;;;;;;;8.38;3.75;;;13.20;99.90;;;;;;4918524;29;20193;-70
2023/05/24 10:31:00;;;;;;;6.32;4.03;;;13.10;99.90;;;;;;4918421;29;20198;-70
2023/05/24 10:33:27;;;;;;;5.93;3.92;;;13.10;99.90;;;;;;4918457;29;20312;-70
2023/05/24 10:35:54;;;;;;;4.43;3.17;;;13.10;99.90;;;;;;4918031;29;20232;-70
2023/05/24 10:38:23;;;;;;;7.10;4.35;;;13.10;99.90;;;;;;4924676;29;20253;-70
2023/05/24 10:40:50;;;;;;;6.72;3.70;;;13.20;99.90;;;;;;4935079;29;20229;-70
2023/05/24 10:43:17;;;;;;;6.80;3.60;;;13.30;99.90;;;;;;4934238;29;20265;-70
2023/05/24 10:45:49;;;;;;;7.43;3.60;;;13.40;99.90;;;;;;4924104;29;20705;-71
2023/05/24 10:48:39;;;;;;;9.20;4.13;;;13.50;99.90;;;;;;4918151;29;20193;-71
2023/05/24 10:51:35;;;;;;;9.05;4.20;;;13.60;99.90;;;;;;4917661;29;20193;-70
2023/05/24 10:54:15;;;;;;;4.30;3.60;;;13.60;99.90;;;;;;4917772;29;20198;-71
2023/05/24 10:56:47;;;;;;;6.90;3.22;;;13.60;99.90;;;;;;4918716;29;20233;-71
2023/05/24 10:59:33;;;;;;;11.63;3.40;;;13.60;99.90;;;;;;4917662;29;20558;-71
2023/05/24 11:02:02;;;;;;;7.20;3.85;;;13.60;99.90;;;;;;4920699;29;20209;-70
2023/05/24 11:04:38;;;;;;;3.92;3.53;;;13.70;99.90;;;;;;4921739;29;20209;-70
2023/05/24 11:07:08;;;;;;;5.85;2.72;;;13.90;99.90;;;;;;4923119;29;20233;-70
2023/05/24 11:09:36;;;;;;;3.60;2.55;;;13.90;99.90;;;;;;4922235;29;20209;-71
2023/05/24 11:12:07;;;;;;;4.78;3.35;;;13.90;99.90;;;;;;4922071;29;20205;-70
2023/05/24 11:14:38;;;;;;;7.45;4.55;;;13.90;99.90;;;;;;4917430;29;20216;-70
2023/05/24 11:17:05;;;;;;;5.70;3.83;;;13.90;99.90;;;;;;4917536;29;20226;-70
2023/05/24 11:19:36;;;;;;;8.45;3.67;;;13.90;99.90;;;;;;4917387;29;20261;-70
2023/05/24 11:22:04;;;;;;;9.23;3.88;;;13.90;99.90;;;;;;4917528;29;20218;-70
2023/05/24 11:24:32;;;;;;;5.68;3.10;;;13.90;99.90;;;;;;4917042;29;20211;-70
2023/05/24 11:27:01;;;;;;;5.68;3.97;;;14.00;99.90;;;;;;4917703;29;20229;-70
2023/05/24 11:29:28;;;;;;;8.30;3.67;;;14.20;99.90;;;;;;4917314;29;20205;-70
2023/05/24 11:31:56;;;;;;;5.72;3.05;;;14.30;99.90;;;;;;4917216;29;20206;-69
2023/05/24 11:34:25;;;;;;;6.43;3.78;;;14.30;99.90;;;;;;4917240;29;20205;-69
2023/05/24 11:36:54;;;;;;;3.83;2.63;;;14.30;99.90;;;;;;4917143;29;20225;-70
2023/05/24 11:39:22;;;;;;;6.85;3.22;;;14.30;99.90;;;;;;4917281;29;20209;-70
2023/05/24 11:41:49;;;;;;;5.15;3.00;;;14.40;99.90;;;;;;4917122;29;20221;-70
2023/05/24 11:44:18;;;;;;;8.13;3.53;;;14.50;99.90;;;;;;4916902;29;20573;-70
2023/05/24 11:46:46;;;;;;;6.38;3.70;;;14.50;99.90;;;;;;4919581;29;20249;-69
2023/05/24 11:49:14;;;;;;;6.18;3.80;;;14.50;99.90;;;;;;4920490;29;20264;-71
2023/05/24 11:51:41;;;;;;;12.02;3.80;;;14.60;99.90;;;;;;4920328;29;20232;-70
2023/05/24 11:54:10;;;;;;;6.35;3.10;;;14.60;99.90;;;;;;4920554;29;20205;-71
2023/05/24 11:56:38;;;;;;;6.18;3.22;;;14.60;99.90;;;;;;4920818;29;20267;-70
2023/05/24 11:59:15;;;;;;;7.82;4.07;;;14.70;99.90;;;;;;4918200;29;20217;-70
2023/05/24 12:01:43;;;;;;;5.60;3.65;;;14.80;99.90;;;;;;4921096;29;20213;-70
2023/05/24 12:04:10;;;;;;;5.28;3.55;;;15.00;99.00;;;;;;4921687;29;20228;-70
2023/05/24 12:06:39;;;;;;;6.45;3.50;;;15.10;99.90;;;;;;4921244;29;20273;-71
2023/05/24 12:09:12;;;;;;;10.20;3.90;;;15.30;95.70;;;;;;4919626;29;20206;-70
2023/05/24 12:11:41;;;;;;;4.65;2.85;;;15.40;91.50;;;;;;4919874;29;20189;-70
2023/05/24 12:14:12;;;;;;;4.22;2.45;;;15.50;97.20;;;;;;4921653;29;20209;-70
2023/05/24 12:16:39;;;;;;;3.72;2.83;;;15.70;94.00;;;;;;4921536;29;20230;-70
2023/05/24 12:19:07;;;;;;;4.60;2.90;;;15.80;90.00;;;;;;4920927;29;20237;-70
2023/05/24 12:21:35;;;;;;;6.97;3.58;;;15.90;86.40;;;;;;4921538;29;20245;-70
2023/05/24 12:24:09;;;;;;;4.05;2.67;;;16.00;79.50;;;;;;4918413;29;20205;-70
2023/05/24 12:26:37;;;;;;;8.68;4.50;;;16.00;81.40;;;;;;4916841;29;20256;-69
2023/05/24 12:29:05;;;;;;;8.88;3.67;;;16.20;82.00;;;;;;4916745;29;20213;-69
2023/05/24 12:31:32;;;;;;;9.10;3.20;;;16.40;86.40;;;;;;4916749;29;20564;-70
2023/05/24 12:33:59;;;;;;;4.68;2.92;;;16.30;72.50;;;;;;4916763;29;20205;-70
2023/05/24 12:36:28;;;;;;;6.07;3.22;;;16.30;73.70;;;;;;4916856;29;20225;-70
2023/05/24 12:38:57;;;;;;;7.63;3.22;;;16.30;74.90;;;;;;4919781;29;20205;-70
2023/05/24 12:41:24;;;;;;;5.68;3.00;;;16.30;73.00;;;;;;4919690;29;20709;-70
2023/05/24 12:43:52;;;;;;;4.45;3.13;;;16.20;72.10;;;;;;4919961;29;20213;-70
2023/05/24 12:46:20;;;;;;;5.07;3.30;;;16.10;74.30;;;;;;4919927;29;20275;-70
2023/05/24 12:48:47;;;;;;;6.80;3.42;;;16.10;73.90;;;;;;4919991;29;20209;-71
2023/05/24 12:51:13;;;;;;;5.28;2.58;;;15.90;68.20;;;;;;4920018;29;20213;-72
2023/05/24 12:53:42;;;;;;;4.85;2.78;;;15.80;73.20;;;;;;4920128;29;20209;-71
2023/05/24 12:56:08;;;;;;;3.55;2.72;;;15.80;78.90;;;;;;4920086;29;20232;-71
2023/05/24 12:58:36;;;;;;;2.33;2.13;;;15.80;77.00;;;;;;4919589;29;20236;-71
2023/05/24 13:01:02;;;;;;;9.48;3.55;;;15.80;74.90;;;;;;4919937;29;20241;-70
2023/05/24 13:03:30;;;;;;;5.07;3.15;;;15.80;75.00;;;;;;4919989;29;20209;-70
2023/05/24 13:05:58;;;;;;;6.68;3.45;;;15.80;75.00;;;;;;4919191;29;20605;-70
2023/05/24 13:08:27;;;;;;;4.57;2.90;;;15.60;76.90;;;;;;4919552;29;20261;-70
2023/05/24 13:10:54;;;;;;;8.88;4.25;;;15.60;79.20;;;;;;4919205;29;20733;-70
2023/05/24 13:13:20;;;;;;;6.38;3.58;;;15.60;80.20;;;;;;4919421;29;20202;-70
2023/05/24 13:15:47;;;;;;;3.35;3.03;;;15.50;86.00;;;;;;4919364;29;20236;-70
2023/05/24 13:18:15;;;;;;;4.93;2.80;;;15.60;88.00;;;;;;4919353;29;20247;-70
2023/05/24 13:20:43;;;;;;;10.65;4.47;;;15.60;90.30;;;;;;4919291;29;20206;-70
2023/05/24 13:23:09;;;;;;;6.13;4.18;;;15.70;86.90;;;;;;4919194;29;20584;-70
2023/05/24 13:25:36;;;;;;;10.18;4.32;;;15.70;90.80;;;;;;4919200;29;20209;-70
2023/05/24 13:28:03;;;;;;;8.73;4.30;;;15.70;89.20;;;;;;4919306;29;20205;-70
2023/05/24 13:30:30;;;;;;;9.93;4.05;;;15.70;88.70;;;;;;4919116;29;20201;-70
2023/05/24 13:32:58;;;;;;;5.97;3.22;;;15.60;92.50;;;;;;4918857;29;20673;-71
2023/05/24 13:35:25;;;;;;;5.88;2.75;;;15.70;91.80;;;;;;4919228;29;20241;-71
2023/05/24 13:37:54;;;;;;;6.53;3.95;;;15.80;87.60;;;;;;4919069;29;20308;-71
2023/05/24 13:40:23;;;;;;;6.97;4.10;;;15.70;82.50;;;;;;4919100;29;20209;-71
2023/05/24 13:42:50;;;;;;;8.52;4.30;;;15.70;81.00;;;;;;4918906;29;20224;-71
2023/05/24 13:45:17;;;;;;;5.63;3.13;;;15.70;82.10;;;;;;4919022;29;20209;-72
2023/05/24 13:47:44;;;;;;;6.85;4.13;;;15.60;80.00;;;;;;4918150;29;20733;-71
2023/05/24 13:50:11;;;;;;;9.18;4.03;;;15.50;82.30;;;;;;4919213;29;20189;-71
2023/05/24 13:52:38;;;;;;;7.28;3.90;;;15.40;81.70;;;;;;4919629;29;20206;-70
2023/05/24 13:55:07;;;;;;;12.02;5.18;;;15.40;85.90;;;;;;4918666;29;20237;-70
2023/05/24 13:57:34;;;;;;;11.50;4.82;;;15.30;82.90;;;;;;4918239;29;20228;-71
2023/05/24 14:00:01;;;;;;;6.65;3.65;;;15.10;88.40;;;;;;4918272;29;20566;-69
2023/05/24 14:02:28;;;;;;;6.35;3.63;;;15.00;92.00;;;;;;4918377;29;20223;-69
2023/05/24 14:04:55;;;;;;;9.88;4.47;;;14.90;95.10;;;;;;4918028;29;20704;-69
2023/05/24 14:07:22;;;;;;;7.32;4.05;;;14.80;93.80;;;;;;4918313;29;20232;-71
2023/05/24 14:09:49;;;;;;;7.45;3.67;;;14.80;97.20;;;;;;4918438;29;20212;-70
2023/05/24 14:12:17;;;;;;;7.50;3.67;;;14.70;96.40;;;;;;4918304;29;20209;-70
2023/05/24 14:14:44;;;;;;;7.53;4.47;;;14.80;96.20;;;;;;4918387;29;20185;-70
2023/05/24 14:17:12;;;;;;;7.45;3.65;;;14.80;93.90;;;;;;4918698;29;20236;-70
2023/05/24 14:19:38;;;;;;;14.02;4.68;;;14.70;97.50;;;;;;4918370;29;20201;-70
2023/05/24 14:22:05;;;;;;;7.00;4.25;;;14.80;92.60;;;;;;4918117;29;20232;-69
2023/05/24 14:24:32;;;;;;;6.47;3.58;;;14.80;93.80;;;;;;4918037;29;20685;-69
2023/05/24 14:27:00;;;;;;;8.05;4.90;;;14.90;96.60;;;;;;4918144;29;20240;-69
2023/05/24 14:29:28;;;;;;;7.20;4.20;;;15.00;92.90;;;;;;4918370;29;20206;-70
2023/05/24 14:31:55;;;;;;;8.93;4.13;;;15.10;92.90;;;;;;4917995;29;20213;-70
2023/05/24 14:34:21;;;;;;;7.35;3.40;;;15.20;89.80;;;;;;4918054;29;20246;-70
2023/05/24 14:36:48;;;;;;;12.07;5.18;;;15.10;92.80;;;;;;4917690;29;20233;-71
2023/05/24 14:39:15;;;;;;;11.40;4.07;;;15.10;87.40;;;;;;4917663;29;20585;-71
2023/05/24 14:41:41;;;;;;;8.07;4.35;;;15.10;91.30;;;;;;4917518;29;20662;-71
2023/05/24 14:44:08;;;;;;;8.50;3.75;;;15.10;94.30;;;;;;4917760;29;20212;-71
2023/05/24 14:46:36;;;;;;;5.97;2.95;;;15.10;92.10;;;;;;4917719;29;20225;-71
2023/05/24 14:49:03;;;;;;;6.28;2.78;;;15.10;92.30;;;;;;4918641;29;20213;-71
2023/05/24 14:51:30;;;;;;;4.43;2.92;;;15.10;87.10;;;;;;4923320;29;20198;-71
2023/05/24 14:53:56;;;;;;;4.03;3.20;;;15.10;85.60;;;;;;4917867;29;20201;-71
2023/05/24 14:56:23;;;;;;;6.07;3.30;;;15.10;90.10;;;;;;4917671;29;20221;-71
2023/05/24 14:58:50;;;;;;;5.50;3.83;;;15.10;89.70;;;;;;4917546;29;20677;-71
2023/05/24 15:01:16;;;;;;;9.40;3.65;;;15.10;89.10;;;;;;4917078;29;20212;-70
2023/05/24 15:03:44;;;;;;;10.38;3.75;;;15.00;92.30;;;;;;4917554;29;20307;-69
2023/05/24 15:06:12;;;;;;;6.40;3.30;;;14.90;92.10;;;;;;4917475;29;20233;-70
2023/05/24 15:08:39;;;;;;;8.32;3.42;;;14.80;93.00;;;;;;4917496;29;20216;-69
2023/05/24 15:11:06;;;;;;;6.47;3.80;;;14.70;91.00;;;;;;4917450;29;20255;-69
2023/05/24 15:13:32;;;;;;;5.93;2.67;;;14.50;93.70;;;;;;4917365;29;20679;-69
2023/05/24 15:16:00;;;;;;;4.65;3.00;;;14.40;96.30;;;;;;4917055;29;20596;-69
2023/05/24 15:18:27;;;;;;;5.90;3.92;;;14.30;96.40;;;;;;4917454;29;20237;-71
2023/05/24 15:20:55;;;;;;;13.23;5.10;;;14.30;96.10;;;;;;4917555;29;20240;-71
2023/05/24 15:23:24;;;;;;;10.18;3.58;;;14.30;92.70;;;;;;4917473;29;20225;-71
2023/05/24 15:25:51;;;;;;;3.13;2.78;;;14.20;94.40;;;;;;4917480;29;20226;-71
2023/05/24 15:28:18;;;;;;;5.00;2.95;;;14.20;94.00;;;;;;4917200;29;20617;-71
2023/05/24 15:30:45;;;;;;;5.45;3.03;;;14.20;93.80;;;;;;4917533;29;20213;-71
2023/05/24 15:33:13;;;;;;;3.30;2.60;;;14.10;96.90;;;;;;4917120;29;20253;-71
2023/05/24 15:35:40;;;;;;;3.08;2.30;;;14.10;99.40;;;;;;4917286;29;20240;-70
2023/05/24 15:38:08;;;;;;;6.72;3.50;;;14.10;99.80;;;;;;4917554;29;20205;-70
2023/05/24 15:40:34;;;;;;;10.32;3.67;;;14.10;94.90;;;;;;4917414;29;20629;-70
2023/05/24 15:43:01;;;;;;;7.60;3.05;;;14.00;97.70;;;;;;4917131;29;20240;-70
2023/05/24 15:45:28;;;;;;;4.95;3.10;;;14.00;95.80;;;;;;4917374;29;20237;-70
2023/05/24 15:47:55;;;;;;;5.22;3.20;;;13.90;95.00;;;;;;4917147;29;20678;-70
2023/05/24 15:50:21;;;;;;;3.97;2.85;;;13.90;91.10;;;;;;4917706;29;20202;-71
2023/05/24 15:52:48;;;;;;;3.15;2.70;;;13.90;91.90;;;;;;4918485;29;20253;-71
2023/05/24 15:55:16;;;;;;;3.28;2.58;;;13.90;90.30;;;;;;4917713;29;20235;-71
2023/05/24 15:57:43;;;;;;;3.80;2.65;;;13.90;92.80;;;;;;4917214;29;20225;-70
2023/05/24 16:00:11;;;;;;;6.82;3.13;;;13.90;92.30;;;;;;4916757;29;20209;-71
2023/05/24 16:02:37;;;;;;;5.10;2.75;;;14.00;91.40;;;;;;4917223;29;20221;-71
2023/05/24 16:05:05;;;;;;;8.07;3.10;;;14.00;88.60;;;;;;4917071;29;20216;-73
2023/05/24 16:07:31;;;;;;;4.05;2.97;;;13.90;88.20;;;;;;4917036;29;20222;-70
2023/05/24 16:09:58;;;;;;;5.78;2.55;;;13.90;87.70;;;;;;4938638;23;20269;-75
2023/05/24 16:12:26;;;;;;;2.90;2.63;;;13.90;86.60;;;;;;4919668;29;20228;-74
2023/05/24 16:14:53;;;;;;;4.25;2.33;;;13.80;86.40;;;;;;4920554;29;20216;-75
2023/05/24 16:17:19;;;;;;;3.90;2.65;;;13.80;85.00;;;;;;4920890;29;20202;-75
2023/05/24 16:19:48;;;;;;;2.83;2.38;;;13.70;84.80;;;;;;4920568;29;20229;-75
2023/05/24 16:22:14;;;;;;;4.63;3.78;;;13.80;84.80;;;;;;4920257;29;20215;-75
2023/05/24 16:24:41;;;;;;;7.85;3.00;;;13.90;81.70;;;;;;4920786;29;20297;-75
2023/05/24 16:27:08;;;;;;;5.30;3.13;;;13.90;84.30;;;;;;4920807;29;20248;-74
2023/05/24 16:29:36;;;;;;;4.57;2.05;;;14.00;78.80;;;;;;4920333;29;20224;-72
2023/05/24 16:32:03;;;;;;;6.05;2.47;;;14.00;69.10;;;;;;4920370;29;20209;-76
2023/05/24 16:34:30;;;;;;;3.97;2.88;;;14.00;65.40;;;;;;4921345;29;20697;-77
2023/05/24 16:36:57;;;;;;;8.00;2.65;;;13.90;64.60;;;;;;4920964;29;20213;-74
2023/05/24 16:39:24;;;;;;;6.10;2.42;;;13.90;63.10;;;;;;4920396;29;20229;-75
2023/05/24 16:41:51;;;;;;;4.60;2.35;;;13.80;60.70;;;;;;4920176;29;20209;-73
2023/05/24 16:44:18;;;;;;;3.22;2.30;;;13.70;63.40;;;;;;4919753;29;20225;-73